Time;durP1;ratioP1;P1;durP2;ratioP2;P2;SDS_P1;SDS_P2;PMS_P1;PMS_P2;Temp;Humidity;BMP_temperature;BMP_pressure;BME280_temperature;BME280_humidity;BME280_pressure;Samples;Min_cycle;Max_cycle;Signal;HPM_P1;HPM_P2
2021/10/22 00:00:20;;;;;;;4.35;0.45;;;;;;;5.95;53.07;100760.53;5014711;28;20034;-68
2021/10/22 00:02:46;;;;;;;3.28;0.10;;;;;;;5.90;53.63;100759.78;5016104;28;20513;-67
2021/10/22 00:05:13;;;;;;;2.55;0.10;;;;;;;5.51;54.52;100764.94;5013901;28;20111;-68
2021/10/22 00:07:39;;;;;;;2.65;0.10;;;;;;;5.12;55.76;100762.25;5016691;28;20621;-67
2021/10/22 00:10:06;;;;;;;7.05;0.40;;;;;;;5.76;53.95;100754.06;5014412;28;20044;-67
2021/10/22 00:12:32;;;;;;;0.90;0.20;;;;;;;5.90;53.57;100745.97;5013837;28;20029;-66
2021/10/22 00:14:58;;;;;;;7.45;0.38;;;;;;;5.90;53.51;100752.00;5016152;28;20401;-67
2021/10/22 00:17:23;;;;;;;0.93;0.10;;;;;;;5.95;53.75;100759.66;5015022;28;20396;-67
2021/10/22 00:19:49;;;;;;;2.83;0.68;;;;;;;6.08;53.31;100755.91;5013587;28;20037;-68
2021/10/22 00:22:15;;;;;;;4.47;0.50;;;;;;;5.60;54.93;100764.75;5010964;28;20605;-67
2021/10/22 00:24:41;;;;;;;5.18;0.25;;;;;;;5.38;55.82;100764.31;5015541;28;20121;-67
2021/10/22 00:27:07;;;;;;;6.63;0.60;;;;;;;5.76;55.14;100764.44;5010465;28;20124;-67
2021/10/22 00:29:34;;;;;;;4.30;0.45;;;;;;;5.77;55.10;100753.16;5012211;28;20029;-67
2021/10/22 00:31:59;;;;;;;7.32;0.63;;;;;;;5.54;55.18;100745.88;5011068;28;20067;-67
2021/10/22 00:34:27;;;;;;;6.32;0.98;;;;;;;5.15;57.13;100753.56;5013714;28;20380;-67
2021/10/22 00:36:53;;;;;;;5.85;0.73;;;;;;;5.31;56.34;100742.00;5016474;28;20034;-67
2021/10/22 00:39:18;;;;;;;5.80;0.80;;;;;;;5.60;56.09;100741.41;5013551;28;20021;-66
2021/10/22 00:41:46;;;;;;;9.80;0.85;;;;;;;5.59;55.87;100747.50;5013413;28;20502;-68
2021/10/22 00:44:11;;;;;;;9.80;1.40;;;;;;;5.31;57.15;100756.72;5017994;28;20394;-68
2021/10/22 00:46:41;;;;;;;4.28;0.22;;;;;;;5.54;56.61;100769.22;5030499;28;20060;-66
2021/10/22 00:49:08;;;;;;;5.15;0.63;;;;;;;5.93;55.52;100757.13;5015379;28;20042;-67
2021/10/22 00:51:35;;;;;;;13.85;0.82;;;;;;;5.90;55.41;100745.97;5015009;28;20478;-68
2021/10/22 00:54:04;;;;;;;7.55;0.50;;;;;;;5.92;55.07;100739.00;5029712;28;20414;-67
2021/10/22 00:56:29;;;;;;;13.10;1.00;;;;;;;6.37;53.61;100734.47;5018795;28;20486;-68
2021/10/22 00:58:56;;;;;;;4.35;0.35;;;;;;;6.03;54.33;100722.28;5013279;28;20069;-67
2021/10/22 01:01:21;;;;;;;9.75;0.77;;;;;;;6.11;53.93;100718.69;5012854;28;20042;-67
2021/10/22 01:03:47;;;;;;;8.70;0.65;;;;;;;5.93;54.70;100726.00;5014041;28;20045;-68
2021/10/22 01:06:14;;;;;;;5.75;0.40;;;;;;;5.85;55.19;100730.50;5019148;28;20116;-67
2021/10/22 01:08:40;;;;;;;7.18;1.30;;;;;;;5.64;56.09;100729.25;5014854;28;20153;-67
2021/10/22 01:11:05;;;;;;;9.25;0.47;;;;;;;5.66;55.81;100722.28;5014932;28;20041;-68
2021/10/22 01:13:31;;;;;;;7.68;0.80;;;;;;;5.42;56.41;100739.22;5014709;28;20525;-67
2021/10/22 01:15:57;;;;;;;9.77;0.98;;;;;;;5.10;57.06;100732.06;5012973;28;20065;-66
2021/10/22 01:18:27;;;;;;;5.47;0.88;;;;;;;4.94;57.66;100747.91;5012470;28;20033;-67
2021/10/22 01:21:00;;;;;;;8.38;0.47;;;;;;;5.58;56.03;100719.84;5029923;28;20125;-67
2021/10/22 01:23:26;;;;;;;5.32;0.15;;;;;;;4.77;57.97;100711.94;5015561;28;20536;-67
2021/10/22 01:25:51;;;;;;;9.50;0.50;;;;;;;5.33;56.50;100708.31;5011050;28;20041;-67
2021/10/22 01:28:19;;;;;;;8.77;0.30;;;;;;;5.10;57.20;100707.03;5020984;28;20466;-67
2021/10/22 01:30:46;;;;;;;8.45;0.40;;;;;;;5.04;57.35;100713.19;5013894;28;20119;-66
2021/10/22 01:33:12;;;;;;;4.18;0.80;;;;;;;5.22;56.61;100701.59;5012754;28;20080;-67
2021/10/22 01:35:38;;;;;;;5.57;1.23;;;;;;;4.95;57.58;100696.97;5011303;28;20110;-69
2021/10/22 01:38:04;;;;;;;8.32;0.60;;;;;;;4.76;57.56;100686.91;5010876;28;20041;-69
2021/10/22 01:40:30;;;;;;;11.23;0.57;;;;;;;4.52;57.97;100687.34;5013516;28;20038;-68
2021/10/22 01:42:56;;;;;;;2.38;0.20;;;;;;;4.71;57.46;100677.53;5012359;28;20048;-67
2021/10/22 01:45:22;;;;;;;3.03;0.40;;;;;;;4.58;57.09;100674.31;5009444;28;20034;-68
2021/10/22 01:47:49;;;;;;;3.63;0.20;;;;;;;4.67;57.27;100675.88;5010953;28;20080;-67
2021/10/22 01:50:15;;;;;;;9.27;1.13;;;;;;;4.93;55.96;100668.50;5014354;28;20117;-66
2021/10/22 01:52:40;;;;;;;14.32;1.75;;;;;;;4.65;57.13;100668.13;5011545;28;20037;-66
2021/10/22 01:55:07;;;;;;;3.88;0.40;;;;;;;5.00;55.86;100670.06;5011440;28;20038;-67
2021/10/22 01:57:32;;;;;;;7.13;0.20;;;;;;;4.52;57.26;100669.22;5002404;28;20291;-68
2021/10/22 01:59:58;;;;;;;8.45;0.75;;;;;;;4.54;56.99;100670.06;5022862;28;20121;-67
2021/10/22 02:02:23;;;;;;;3.60;0.55;;;;;;;5.02;55.82;100657.09;5029793;28;20054;-67
2021/10/22 02:04:49;;;;;;;5.32;0.30;;;;;;;4.83;56.81;100652.28;5021553;28;20048;-67
2021/10/22 02:07:14;;;;;;;5.55;0.25;;;;;;;4.22;57.81;100658.56;5012234;28;20099;-67
2021/10/22 02:09:40;;;;;;;9.15;0.90;;;;;;;4.42;57.58;100650.44;5012903;28;20479;-67
2021/10/22 02:12:06;;;;;;;4.65;0.30;;;;;;;5.17;55.08;100636.06;5028974;28;20037;-67
2021/10/22 02:14:32;;;;;;;9.90;0.38;;;;;;;5.13;55.19;100631.84;5012542;28;20332;-65
2021/10/22 02:16:58;;;;;;;5.18;0.95;;;;;;;4.66;56.51;100633.63;5011576;28;20364;-66
2021/10/22 02:19:23;;;;;;;4.57;0.95;;;;;;;4.90;56.45;100637.50;5017265;28;20037;-67
2021/10/22 02:21:49;;;;;;;7.75;1.05;;;;;;;4.23;58.30;100637.00;5013397;28;20038;-67
2021/10/22 02:24:14;;;;;;;4.18;0.13;;;;;;;4.37;58.08;100632.41;5012755;28;20046;-67
2021/10/22 02:26:40;;;;;;;6.32;0.88;;;;;;;4.48;56.80;100629.63;5013137;28;20036;-66
2021/10/22 02:29:05;;;;;;;7.57;0.40;;;;;;;4.84;56.14;100632.41;5010892;28;20034;-67
2021/10/22 02:31:31;;;;;;;4.70;0.30;;;;;;;4.32;57.68;100629.06;5026127;28;20033;-66
2021/10/22 02:33:56;;;;;;;6.95;0.47;;;;;;;4.62;56.53;100621.59;5010498;28;20498;-66
2021/10/22 02:36:22;;;;;;;10.18;0.88;;;;;;;5.17;54.53;100615.34;5011361;28;20592;-67
2021/10/22 02:38:48;;;;;;;6.03;0.55;;;;;;;4.75;55.42;100607.53;5010849;28;20041;-67
2021/10/22 02:41:13;;;;;;;5.53;0.50;;;;;;;4.58;55.76;100605.25;5019111;28;20159;-67
2021/10/22 02:43:44;;;;;;;6.40;0.20;;;;;;;4.18;56.99;100602.56;5028308;28;20428;-67
2021/10/22 02:46:10;;;;;;;7.35;0.70;;;;;;;4.84;55.01;100596.16;5013842;28;20371;-66
2021/10/22 02:48:35;;;;;;;6.15;0.28;;;;;;;4.75;55.19;100592.00;4991919;28;20041;-69
2021/10/22 02:51:01;;;;;;;2.10;0.20;;;;;;;4.48;56.03;100592.56;5013533;28;20033;-67
2021/10/22 02:53:26;;;;;;;7.85;0.88;;;;;;;4.78;55.01;100586.75;5013968;28;20046;-69
2021/10/22 02:55:52;;;;;;;7.50;0.90;;;;;;;4.95;54.29;100598.56;5009366;28;20355;-67
2021/10/22 02:58:17;;;;;;;6.68;0.52;;;;;;;5.40;53.61;100613.97;5000087;28;20498;-67
2021/10/22 03:00:43;;;;;;;5.57;0.40;;;;;;;4.52;55.91;100604.53;5018169;28;20036;-66
2021/10/22 03:03:09;;;;;;;2.67;0.30;;;;;;;4.88;55.17;100586.59;5013855;28;20041;-67
2021/10/22 03:05:35;;;;;;;5.57;0.50;;;;;;;4.88;55.39;100595.22;5011593;28;20321;-69
2021/10/22 03:08:01;;;;;;;9.63;0.60;;;;;;;4.40;56.75;100585.75;5012015;28;20042;-69
2021/10/22 03:10:26;;;;;;;5.45;0.28;;;;;;;4.58;55.57;100563.84;5014798;28;20025;-68
2021/10/22 03:12:53;;;;;;;7.30;0.82;;;;;;;4.73;56.53;100575.66;5011361;28;20117;-67
2021/10/22 03:15:19;;;;;;;6.07;0.45;;;;;;;4.08;57.79;100572.59;5009673;28;20038;-67
2021/10/22 03:17:45;;;;;;;5.60;0.30;;;;;;;4.49;57.17;100564.03;5012426;28;20041;-67
2021/10/22 03:20:11;;;;;;;11.77;0.32;;;;;;;5.09;55.73;100575.78;5011059;28;20041;-67
2021/10/22 03:22:39;;;;;;;4.13;0.60;;;;;;;4.91;56.39;100579.63;5010252;28;20037;-67
2021/10/22 03:25:05;;;;;;;5.57;0.57;;;;;;;4.86;56.23;100580.59;5008504;28;20053;-68
2021/10/22 03:27:31;;;;;;;7.93;0.73;;;;;;;4.23;58.88;100585.25;5010172;28;20131;-67
2021/10/22 03:29:57;;;;;;;2.35;0.60;;;;;;;4.63;57.79;100568.94;5014035;28;20559;-67
2021/10/22 03:32:22;;;;;;;5.78;0.80;;;;;;;4.60;57.85;100556.06;5010029;28;20430;-68
2021/10/22 03:34:48;;;;;;;6.68;0.40;;;;;;;4.96;56.73;100563.97;5008089;28;20042;-68
2021/10/22 03:37:14;;;;;;;13.73;0.77;;;;;;;4.66;57.41;100562.88;5009363;28;20213;-68
2021/10/22 03:39:40;;;;;;;6.63;0.47;;;;;;;5.00;56.44;100563.88;5008466;28;20098;-68
2021/10/22 03:42:05;;;;;;;5.40;0.55;;;;;;;4.74;57.31;100551.44;5008709;28;20046;-67
2021/10/22 03:44:31;;;;;;;5.47;0.30;;;;;;;5.10;56.45;100556.78;5011610;28;20034;-67
2021/10/22 03:46:57;;;;;;;5.18;0.30;;;;;;;4.58;57.90;100547.47;5011775;28;20487;-67
2021/10/22 03:49:22;;;;;;;3.20;0.52;;;;;;;5.04;57.01;100546.53;5014224;28;20144;-67
2021/10/22 03:51:48;;;;;;;7.57;1.02;;;;;;;4.54;58.16;100545.81;5017837;28;20068;-67
2021/10/22 03:54:14;;;;;;;5.97;0.80;;;;;;;4.96;56.97;100548.44;5012183;28;20498;-66
2021/10/22 03:56:39;;;;;;;7.82;0.20;;;;;;;5.10;56.61;100537.75;5013785;28;20063;-67
2021/10/22 03:59:05;;;;;;;9.32;0.73;;;;;;;4.06;59.43;100536.41;5011511;28;20054;-67
2021/10/22 04:01:30;;;;;;;8.15;0.47;;;;;;;4.19;59.24;100539.63;5025143;28;20027;-67
2021/10/22 04:03:56;;;;;;;5.22;1.30;;;;;;;4.49;58.68;100532.13;5016277;28;20049;-66
2021/10/22 04:06:21;;;;;;;14.65;0.82;;;;;;;4.70;57.85;100542.06;5017899;28;20517;-69
2021/10/22 04:08:47;;;;;;;11.23;0.35;;;;;;;4.89;57.39;100545.13;5016573;28;20041;-66
2021/10/22 04:11:12;;;;;;;1.90;0.60;;;;;;;5.28;56.28;100528.72;5014207;28;20033;-68
2021/10/22 04:13:38;;;;;;;3.20;0.55;;;;;;;4.71;57.42;100529.97;5013257;28;20525;-66
2021/10/22 04:16:03;;;;;;;5.63;0.25;;;;;;;4.94;56.91;100529.50;5014188;28;20030;-67
2021/10/22 04:18:29;;;;;;;6.90;0.63;;;;;;;4.77;57.16;100535.03;5013614;28;20038;-67
2021/10/22 04:20:55;;;;;;;1.50;0.40;;;;;;;4.88;57.58;100558.09;5016003;28;20034;-66
2021/10/22 04:23:21;;;;;;;10.80;1.00;;;;;;;4.55;59.01;100547.53;5014435;28;20049;-67
2021/10/22 04:25:49;;;;;;;4.05;0.25;;;;;;;4.53;59.60;100573.44;5011788;28;20130;-68
2021/10/22 04:28:14;;;;;;;5.28;0.45;;;;;;;4.71;59.53;100546.34;5014236;28;20041;-67
2021/10/22 04:30:40;;;;;;;8.05;0.60;;;;;;;4.21;60.70;100540.44;5015166;28;20025;-67
2021/10/22 04:33:06;;;;;;;9.43;0.70;;;;;;;4.20;61.89;100547.31;5012458;28;20519;-67
2021/10/22 04:35:32;;;;;;;4.57;0.43;;;;;;;5.16;58.83;100541.06;5026448;28;20102;-69
2021/10/22 04:40:35;;;;;;;10.65;0.40;;;;;;;4.83;59.44;100527.97;5011281;28;20029;-69
2021/10/22 04:43:06;;;;;;;2.90;0.65;;;;;;;4.76;59.34;100521.19;5012016;28;20048;-70
2021/10/22 04:45:34;;;;;;;13.43;1.50;;;;;;;5.17;58.75;100516.88;5047061;22;20544;-67
2021/10/22 04:48:01;;;;;;;5.18;0.57;;;;;;;4.77;59.08;100522.91;5074834;28;20048;-68
2021/10/22 04:50:28;;;;;;;8.15;0.57;;;;;;;5.56;56.97;100519.41;5063718;28;20031;-66
2021/10/22 04:52:55;;;;;;;5.28;0.45;;;;;;;5.40;57.72;100505.13;5080470;28;20049;-68
2021/10/22 04:55:22;;;;;;;6.25;0.40;;;;;;;5.30;57.85;100511.41;5083766;28;20029;-66
2021/10/22 04:57:49;;;;;;;11.60;1.20;;;;;;;5.09;58.27;100507.59;5046145;28;20043;-68
2021/10/22 05:00:15;;;;;;;11.32;0.43;;;;;;;5.10;57.97;100510.16;5082796;28;20050;-67
2021/10/22 05:02:41;;;;;;;7.78;0.63;;;;;;;5.59;56.70;100498.59;5060552;28;20047;-68
2021/10/22 05:05:07;;;;;;;5.22;0.50;;;;;;;5.19;58.02;100502.16;5051263;28;20051;-68
2021/10/22 05:07:32;;;;;;;10.40;0.30;;;;;;;5.00;58.65;100519.00;5033061;28;20044;-68
2021/10/22 05:09:58;;;;;;;7.80;0.45;;;;;;;4.98;58.47;100520.78;5070654;28;20417;-69
2021/10/22 05:12:24;;;;;;;2.70;0.32;;;;;;;5.45;57.32;100532.59;5059167;28;20047;-68
2021/10/22 05:14:50;;;;;;;9.27;0.28;;;;;;;5.62;56.85;100514.06;5077434;28;20040;-69
2021/10/22 05:17:16;;;;;;;4.03;0.65;;;;;;;5.01;58.88;100510.31;5061297;28;20036;-68
2021/10/22 05:19:42;;;;;;;7.13;0.38;;;;;;;4.92;59.74;100515.72;5066047;28;20039;-68
2021/10/22 05:22:07;;;;;;;11.32;0.43;;;;;;;5.24;58.77;100497.72;5061852;28;20051;-67
2021/10/22 05:24:32;;;;;;;8.18;0.50;;;;;;;5.74;57.17;100494.75;5058338;28;20478;-68
2021/10/22 05:26:58;;;;;;;11.40;1.17;;;;;;;5.80;57.33;100497.19;5062928;28;20115;-69
2021/10/22 05:29:23;;;;;;;5.03;0.40;;;;;;;5.85;57.04;100494.47;5059477;28;20089;-68
2021/10/22 05:31:49;;;;;;;5.95;0.77;;;;;;;5.35;58.66;100496.63;5063503;28;20027;-68
2021/10/22 05:34:16;;;;;;;13.30;0.55;;;;;;;5.26;58.11;100484.72;5081030;28;20499;-68
2021/10/22 05:36:41;;;;;;;11.00;0.95;;;;;;;5.48;57.50;100495.44;5061326;28;20681;-68
2021/10/22 05:39:07;;;;;;;7.45;0.68;;;;;;;5.66;56.99;100483.75;5081036;28;20020;-68
2021/10/22 05:41:33;;;;;;;6.55;0.50;;;;;;;5.39;57.71;100474.88;5048315;28;20051;-69
2021/10/22 05:43:58;;;;;;;2.85;0.40;;;;;;;5.66;56.89;100489.78;5061653;28;20115;-69
2021/10/22 05:46:24;;;;;;;9.88;0.60;;;;;;;5.62;56.81;100487.28;5065459;28;20175;-67
2021/10/22 05:48:50;;;;;;;10.55;1.05;;;;;;;4.91;57.92;100477.78;5065903;28;20032;-67
2021/10/22 05:51:16;;;;;;;9.40;0.73;;;;;;;4.87;58.57;100491.63;5077360;28;20511;-69
2021/10/22 05:53:42;;;;;;;8.30;0.60;;;;;;;4.86;58.19;100480.44;5057141;28;20089;-68
2021/10/22 05:56:08;;;;;;;3.05;0.55;;;;;;;5.58;56.32;100476.13;5077853;28;20115;-69
2021/10/22 05:58:34;;;;;;;5.45;0.45;;;;;;;5.27;57.27;100470.88;5073131;28;20055;-69
2021/10/22 06:01:00;;;;;;;7.63;0.35;;;;;;;5.17;57.88;100465.06;5075893;28;20047;-67
2021/10/22 06:03:25;;;;;;;4.90;0.30;;;;;;;5.35;57.18;100474.13;5064712;28;20342;-69
2021/10/22 06:05:53;;;;;;;5.57;0.50;;;;;;;5.23;57.57;100474.41;5062928;28;20401;-68
2021/10/22 06:08:20;;;;;;;8.77;0.50;;;;;;;5.90;55.85;100466.66;5048726;28;20063;-69
2021/10/22 06:10:46;;;;;;;10.13;0.98;;;;;;;5.56;56.70;100452.00;5068145;28;20032;-68
2021/10/22 06:13:14;;;;;;;7.28;0.57;;;;;;;5.34;57.09;100456.88;5076244;28;20039;-68
2021/10/22 06:15:40;;;;;;;5.00;0.77;;;;;;;5.97;55.43;100450.06;5047701;28;20028;-69
2021/10/22 06:18:06;;;;;;;1.95;0.20;;;;;;;5.40;57.33;100456.72;5046394;28;20070;-68
2021/10/22 06:20:49;;;;;;;7.65;0.35;;;;;;;5.04;58.11;100453.28;5064591;28;20032;-68
2021/10/22 06:25:59;;;;;;;7.13;1.33;;;;;;;5.25;57.09;100451.91;5075915;28;20040;-67
2021/10/22 06:28:24;;;;;;;6.18;0.45;;;;;;;5.40;56.47;100441.16;5058122;28;20032;-67
2021/10/22 06:30:49;;;;;;;11.05;0.70;;;;;;;5.04;57.58;100435.16;5058942;28;20028;-69
2021/10/22 06:33:15;;;;;;;5.75;0.35;;;;;;;5.43;56.55;100440.22;5077546;28;20028;-67
2021/10/22 06:35:43;;;;;;;11.15;0.47;;;;;;;5.22;56.96;100442.47;5079111;28;20031;-69
2021/10/22 06:38:09;;;;;;;4.72;0.45;;;;;;;5.33;57.11;100462.09;5047202;28;20390;-68
2021/10/22 06:40:34;;;;;;;4.68;0.30;;;;;;;5.37;56.97;100481.84;5064553;28;20063;-69
2021/10/22 06:43:00;;;;;;;5.90;0.60;;;;;;;5.91;56.20;100488.28;5048290;28;20040;-67
2021/10/22 06:45:25;;;;;;;11.13;0.57;;;;;;;5.67;57.22;100490.59;5058715;28;20547;-68
2021/10/22 06:47:51;;;;;;;6.53;0.80;;;;;;;5.26;58.30;100484.72;5075122;28;20046;-67
2021/10/22 06:50:17;;;;;;;4.20;0.50;;;;;;;5.55;58.03;100484.00;5059655;28;20492;-68
2021/10/22 06:52:43;;;;;;;3.25;0.65;;;;;;;5.24;59.00;100451.06;5039832;28;20498;-68
2021/10/22 06:55:10;;;;;;;3.58;0.10;;;;;;;5.51;58.52;100458.19;5066930;28;20925;-68
2021/10/22 06:57:40;;;;;;;5.95;0.90;;;;;;;4.59;60.80;100468.94;5072695;28;20510;-68
2021/10/22 07:00:08;;;;;;;5.45;0.68;;;;;;;4.87;60.28;100471.75;5058089;28;20090;-68
2021/10/22 07:02:45;;;;;;;5.38;0.68;;;;;;;5.84;57.40;100492.78;5064495;28;20032;-68
2021/10/22 07:05:24;;;;;;;4.93;0.20;;;;;;;5.72;57.97;100461.97;5076104;28;20047;-69
2021/10/22 07:07:50;;;;;;;7.32;1.33;;;;;;;5.74;57.87;100450.66;5045969;28;20551;-66
2021/10/22 07:10:15;;;;;;;6.22;0.88;;;;;;;5.00;60.17;100459.44;5076801;28;20024;-68
2021/10/22 07:12:41;;;;;;;12.38;1.67;;;;;;;5.57;59.14;100466.66;5057104;28;20044;-67
2021/10/22 07:15:06;;;;;;;5.40;0.63;;;;;;;5.33;60.07;100443.97;5076034;28;20040;-68
2021/10/22 07:17:32;;;;;;;4.60;0.45;;;;;;;5.59;59.19;100441.56;5063536;28;20123;-66
2021/10/22 07:19:58;;;;;;;2.78;0.20;;;;;;;6.03;57.39;100449.88;5075273;28;20037;-68
2021/10/22 07:22:30;;;;;;;7.57;0.57;;;;;;;5.59;58.44;100446.75;5065718;28;20044;-67
2021/10/22 07:24:56;;;;;;;;;;;;;;;5.12;59.64;100455.69;5078046;28;20123;-68
2021/10/22 07:27:21;;;;;;;2.42;0.38;;;;;;;5.57;58.96;100452.84;5068177;28;20006;-67
2021/10/22 07:29:47;;;;;;;7.13;0.35;;;;;;;5.82;57.92;100458.25;5066602;28;20036;-67
2021/10/22 07:32:13;;;;;;;6.78;0.38;;;;;;;6.50;56.06;100458.06;5061854;28;20069;-67
2021/10/22 07:34:38;;;;;;;12.95;1.00;;;;;;;6.96;55.36;100449.78;5069314;28;20692;-68
2021/10/22 07:37:04;;;;;;;7.75;1.00;;;;;;;7.95;53.46;100461.19;5074628;28;20036;-69
2021/10/22 07:39:29;;;;;;;14.38;0.63;;;;;;;7.59;52.56;100447.72;5062672;28;20025;-69
2021/10/22 07:41:55;;;;;;;5.18;0.35;;;;;;;8.31;50.80;100439.94;5062162;28;20040;-68
2021/10/22 07:44:21;;;;;;;4.18;1.25;;;;;;;7.57;53.31;100428.72;5047717;28;20032;-67
2021/10/22 07:46:46;;;;;;;6.53;0.60;;;;;;;6.67;55.34;100433.34;5051437;28;20041;-69
2021/10/22 07:49:12;;;;;;;6.50;0.35;;;;;;;5.95;57.63;100433.69;5078937;28;20032;-68
2021/10/22 07:51:38;;;;;;;4.50;0.68;;;;;;;5.63;59.55;100447.50;5066946;28;20032;-68
2021/10/22 07:54:04;;;;;;;8.93;1.35;;;;;;;5.63;59.49;100448.34;5048641;28;20044;-68
2021/10/22 07:56:29;;;;;;;10.20;0.35;;;;;;;5.96;57.75;100445.75;5062302;28;20040;-66
2021/10/22 07:58:55;;;;;;;5.82;0.43;;;;;;;6.18;58.15;100435.63;5079739;28;20043;-67
2021/10/22 08:01:20;;;;;;;9.70;0.40;;;;;;;6.98;56.56;100440.19;5078590;28;20066;-69
2021/10/22 08:03:47;;;;;;;5.07;0.20;;;;;;;7.94;54.46;100428.28;5084116;28;20036;-67
2021/10/22 08:06:14;;;;;;;13.18;0.88;;;;;;;7.64;52.18;100438.00;5050021;28;20460;-69
2021/10/22 08:08:44;;;;;;;8.85;0.63;;;;;;;7.35;54.25;100428.56;5051755;28;20052;-68
2021/10/22 08:11:17;;;;;;;9.68;0.60;;;;;;;6.18;57.56;100429.59;5079278;28;20039;-68
2021/10/22 08:13:44;;;;;;;5.85;0.40;;;;;;;6.83;56.42;100436.31;5017735;28;20513;-69
2021/10/22 08:16:10;;;;;;;6.03;0.40;;;;;;;6.03;57.74;100449.88;5066402;28;20091;-70
2021/10/22 08:18:37;;;;;;;8.27;0.68;;;;;;;6.59;57.07;100466.47;5060811;28;20497;-70
2021/10/22 08:21:17;;;;;;;10.32;0.80;;;;;;;6.65;56.81;100453.31;5080266;28;20114;-69
2021/10/22 08:23:44;;;;;;;8.38;0.40;;;;;;;6.49;57.08;100451.19;5051253;28;20318;-67
2021/10/22 08:26:09;;;;;;;4.78;0.25;;;;;;;6.15;57.65;100453.00;5049811;28;20229;-70
2021/10/22 08:28:35;;;;;;;6.25;0.50;;;;;;;6.64;56.21;100449.88;5074313;28;20950;-69
2021/10/22 08:31:00;;;;;;;2.53;0.20;;;;;;;6.84;55.49;100472.66;5080566;28;20051;-69
2021/10/22 08:33:26;;;;;;;2.35;0.30;;;;;;;6.56;55.77;100502.94;5053084;28;20052;-67
2021/10/22 08:35:55;;;;;;;3.38;0.65;;;;;;;7.07;54.00;100525.66;5060441;28;20040;-68
2021/10/22 08:38:21;;;;;;;13.98;2.05;;;;;;;6.11;56.39;100521.47;5061924;28;20043;-67
2021/10/22 08:40:47;;;;;;;4.78;0.30;;;;;;;6.01;56.44;100552.81;5058798;28;20028;-66
2021/10/22 08:43:13;;;;;;;3.15;0.35;;;;;;;5.89;56.72;100537.59;5064133;28;20227;-66
2021/10/22 08:45:39;;;;;;;1.75;0.28;;;;;;;5.33;57.76;100547.63;5062606;28;20243;-66
2021/10/22 08:48:09;;;;;;;4.68;0.30;;;;;;;5.21;59.01;100523.72;5076512;28;20747;-66
2021/10/22 08:50:35;;;;;;;10.15;0.70;;;;;;;5.77;57.70;100511.97;5065644;28;20032;-68
2021/10/22 08:53:01;;;;;;;12.00;0.57;;;;;;;6.25;57.20;100516.75;5044770;28;20143;-67
2021/10/22 08:55:27;;;;;;;13.30;1.40;;;;;;;6.00;58.60;100514.81;5065086;28;20119;-68
2021/10/22 08:57:52;;;;;;;5.57;0.50;;;;;;;6.26;58.25;100502.88;5043062;28;20127;-68
2021/10/22 09:00:22;;;;;;;12.40;0.50;;;;;;;6.63;57.26;100514.84;5044950;28;20482;-67
2021/10/22 09:02:49;;;;;;;10.55;0.88;;;;;;;6.87;56.77;100527.09;5060308;28;20052;-66
2021/10/22 09:05:15;;;;;;;11.48;0.38;;;;;;;6.43;58.40;100526.63;5048014;28;20043;-68
2021/10/22 09:07:49;;;;;;;13.27;1.05;;;;;;;6.72;57.75;100519.75;5055084;28;20043;-68
2021/10/22 09:10:18;;;;;;;4.82;0.65;;;;;;;6.15;59.37;100518.75;5073492;28;20035;-68
2021/10/22 09:12:50;;;;;;;12.25;0.57;;;;;;;6.45;57.98;100517.06;5066318;28;20043;-67
2021/10/22 09:15:28;;;;;;;9.52;0.98;;;;;;;6.29;58.63;100518.41;5073719;28;20043;-67
2021/10/22 09:17:56;;;;;;;5.25;0.57;;;;;;;6.35;58.60;100525.16;5073918;28;20509;-68
2021/10/22 09:20:27;;;;;;;8.90;0.98;;;;;;;6.25;59.04;100529.72;5056355;28;20053;-67
2021/10/22 09:22:57;;;;;;;6.47;0.55;;;;;;;6.26;59.14;100527.09;5054481;28;20572;-66
2021/10/22 09:25:26;;;;;;;18.92;1.27;;;;;;;6.57;58.28;100525.41;5064549;28;20036;-67
2021/10/22 09:28:03;;;;;;;11.25;0.85;;;;;;;6.97;57.35;100513.81;5055638;28;20838;-68
2021/10/22 09:30:42;;;;;;;7.03;1.02;;;;;;;6.86;57.79;100516.75;5062837;28;20477;-67
2021/10/22 09:33:10;;;;;;;8.25;0.57;;;;;;;6.79;58.33;100547.25;5061639;28;20089;-67
2021/10/22 09:35:47;;;;;;;6.82;0.50;;;;;;;6.63;58.43;100546.00;5059121;28;20062;-67
2021/10/22 09:38:23;;;;;;;9.13;0.90;;;;;;;6.55;59.46;100550.56;5072234;28;20035;-67
2021/10/22 09:41:00;;;;;;;9.43;1.08;;;;;;;6.08;60.43;100557.00;5055014;28;20131;-67
2021/10/22 09:43:38;;;;;;;11.32;0.90;;;;;;;6.78;58.42;100561.16;5076408;28;20055;-68
2021/10/22 09:46:21;;;;;;;9.00;0.80;;;;;;;7.30;56.84;100569.97;5077947;28;20497;-68
2021/10/22 09:48:48;;;;;;;4.88;0.40;;;;;;;7.26;56.51;100560.53;5044389;28;20064;-67
2021/10/22 09:51:20;;;;;;;6.88;0.93;;;;;;;7.70;55.71;100579.13;5059463;28;20093;-68
2021/10/22 09:53:46;;;;;;;8.35;0.70;;;;;;;7.73;54.90;100570.38;5075306;28;20087;-68
2021/10/22 09:56:19;;;;;;;14.20;0.63;;;;;;;7.85;54.69;100574.34;5075514;28;20028;-68
2021/10/22 09:59:24;;;;;;;16.92;1.02;;;;;;;7.40;54.86;100575.75;5064021;28;20047;-68
2021/10/22 10:01:55;;;;;;;3.58;0.52;;;;;;;7.49;53.07;100585.00;5029198;28;20064;-68
2021/10/22 10:04:23;;;;;;;2.17;0.20;;;;;;;7.88;52.82;100593.28;5068622;28;20050;-67
2021/10/22 10:06:50;;;;;;;13.07;0.82;;;;;;;8.21;51.82;100595.66;5033063;28;20036;-67
2021/10/22 10:09:17;;;;;;;9.00;0.30;;;;;;;8.57;50.49;100590.88;5063789;28;20020;-67
2021/10/22 10:11:44;;;;;;;4.13;0.20;;;;;;;8.74;50.34;100603.34;5061976;28;20032;-68
2021/10/22 10:14:14;;;;;;;8.70;0.50;;;;;;;8.66;49.37;100601.91;5053144;28;20028;-68
2021/10/22 10:16:41;;;;;;;2.28;0.20;;;;;;;8.96;49.11;100605.13;5042854;28;20506;-69
2021/10/22 10:19:38;;;;;;;2.50;0.20;;;;;;;9.00;49.21;100604.13;5059887;28;20042;-67
2021/10/22 10:22:08;;;;;;;0.95;0.20;;;;;;;8.81;48.63;100590.94;5057965;28;20044;-68
2021/10/22 10:24:41;;;;;;;2.72;0.20;;;;;;;8.87;48.96;100605.47;5059917;28;20039;-68
2021/10/22 10:27:12;;;;;;;3.67;0.40;;;;;;;8.75;49.94;100605.03;5076436;28;20035;-68
2021/10/22 10:29:46;;;;;;;4.45;0.22;;;;;;;8.39;51.08;100633.22;5077194;28;21346;-68
2021/10/22 10:32:15;;;;;;;11.60;0.30;;;;;;;6.87;54.95;100670.00;5070633;28;20036;-68
2021/10/22 10:34:49;;;;;;;6.20;0.50;;;;;;;7.11;55.03;100675.41;5039904;28;20123;-68
2021/10/22 10:37:21;;;;;;;4.78;0.38;;;;;;;6.93;55.17;100668.09;5047599;28;20510;-68
2021/10/22 10:39:50;;;;;;;4.93;0.38;;;;;;;6.97;55.00;100664.53;5056593;28;20458;-67
2021/10/22 10:42:30;;;;;;;13.77;0.40;;;;;;;7.70;53.43;100672.78;5047641;28;20574;-68
2021/10/22 10:45:19;;;;;;;8.48;0.30;;;;;;;7.83;52.67;100677.59;5062620;28;20113;-68
2021/10/22 10:47:49;;;;;;;9.05;0.93;;;;;;;7.73;52.64;100674.44;5075698;28;20481;-68
2021/10/22 10:50:17;;;;;;;9.25;0.68;;;;;;;6.86;53.60;100673.50;5076336;28;20051;-68
2021/10/22 10:52:44;;;;;;;3.45;0.40;;;;;;;7.28;53.41;100691.34;5056862;28;20056;-68
2021/10/22 10:55:31;;;;;;;9.55;1.00;;;;;;;7.18;53.39;100674.31;5056601;28;20094;-67
2021/10/22 10:58:08;;;;;;;4.32;0.10;;;;;;;6.89;52.64;100657.81;5037034;28;20048;-68
2021/10/22 11:00:49;;;;;;;2.53;0.50;;;;;;;7.15;50.70;100674.38;5047124;28;20033;-68
2021/10/22 11:03:22;;;;;;;1.08;0.10;;;;;;;7.40;49.59;100673.66;5079125;28;20129;-69
2021/10/22 11:05:56;;;;;;;3.35;0.28;;;;;;;8.22;49.72;100685.84;5071964;28;20048;-67
2021/10/22 11:08:23;;;;;;;4.30;0.10;;;;;;;8.04;48.18;100682.09;5067197;28;20071;-68
2021/10/22 11:11:15;;;;;;;7.80;0.45;;;;;;;8.63;46.67;100690.56;5058639;28;20048;-68
2021/10/22 11:13:47;;;;;;;2.78;0.20;;;;;;;8.67;45.89;100713.00;5064847;28;20064;-66
2021/10/22 11:16:22;;;;;;;1.90;0.20;;;;;;;8.35;46.83;100715.81;5075354;28;20028;-68
2021/10/22 11:18:55;;;;;;;1.35;0.20;;;;;;;7.92;48.66;100731.97;5070819;28;20048;-67
2021/10/22 11:21:21;;;;;;;7.65;0.40;;;;;;;7.14;51.77;100723.84;5064895;28;20035;-68
2021/10/22 11:23:47;;;;;;;11.10;1.20;;;;;;;6.54;54.43;100733.22;5046708;28;20723;-68
2021/10/22 11:26:18;;;;;;;8.40;0.45;;;;;;;7.32;53.14;100734.56;5055942;28;20032;-68
2021/10/22 11:28:47;;;;;;;3.67;0.35;;;;;;;7.39;52.45;100734.38;5069198;28;20039;-67
2021/10/22 11:31:13;;;;;;;11.23;1.02;;;;;;;7.57;52.18;100727.81;5060064;28;20036;-68
2021/10/22 11:33:43;;;;;;;3.63;0.85;;;;;;;7.89;51.47;100740.72;5074475;28;20673;-68
2021/10/22 11:36:08;;;;;;;2.53;0.35;;;;;;;8.10;50.47;100747.00;5062869;28;20036;-67
2021/10/22 11:38:34;;;;;;;10.45;0.70;;;;;;;7.94;51.03;100748.38;5056128;28;20192;-67